Time;durP1;ratioP1;P1;durP2;ratioP2;P2;SDS_P1;SDS_P2;PMS_P1;PMS_P2;Temp;Humidity;BMP_temperature;BMP_pressure;BME280_temperature;BME280_humidity;BME280_pressure;Samples;Min_cycle;Max_cycle;Signal;HPM_P1;HPM_P2
2021/03/03 00:04:59;;;;;;;24.67;17.05;;;;;;;6.23;100.00;102209.97;9989259;29;20099;-73
2021/03/03 00:10:05;;;;;;;27.02;18.33;;;;;;;6.20;100.00;102193.38;9988071;29;20058;-73
2021/03/03 00:15:11;;;;;;;22.60;15.18;;;;;;;6.15;100.00;102190.78;9973180;29;20058;-73
2021/03/03 00:20:15;;;;;;;28.58;18.38;;;;;;;5.71;100.00;102149.78;9973232;29;20047;-73
2021/03/03 00:25:19;;;;;;;27.02;17.10;;;;;;;6.06;100.00;102199.50;9958885;29;20062;-73
2021/03/03 00:30:21;;;;;;;26.17;17.30;;;;;;;6.07;100.00;102198.66;9988081;29;20067;-73
2021/03/03 00:35:25;;;;;;;23.48;15.43;;;;;;;5.90;100.00;102182.06;9988033;29;20157;-72
2021/03/03 00:40:29;;;;;;;22.85;15.45;;;;;;;6.19;100.00;102213.47;9987641;29;20054;-73
2021/03/03 00:45:31;;;;;;;26.08;16.25;;;;;;;6.29;100.00;102220.44;9949821;29;20051;-73
2021/03/03 00:50:34;;;;;;;23.23;15.23;;;;;;;6.23;100.00;102209.09;9962945;29;20149;-73
2021/03/03 00:55:36;;;;;;;21.98;15.82;;;;;;;6.25;100.00;102200.38;9971093;29;20054;-73
2021/03/03 01:00:39;;;;;;;23.70;16.13;;;;;;;6.08;100.00;102179.47;9970469;29;20451;-73
2021/03/03 01:05:46;;;;;;;22.88;17.17;;;;;;;5.93;100.00;102174.25;9972394;29;20149;-73
2021/03/03 01:10:51;;;;;;;22.85;16.23;;;;;;;5.98;100.00;102182.06;9957062;29;20467;-73
2021/03/03 01:15:59;;;;;;;23.38;16.30;;;;;;;6.00;100.00;102185.56;9957402;29;20054;-73
2021/03/03 01:21:03;;;;;;;;;;;;;;;5.65;100.00;102146.28;9971958;29;20393;-73
2021/03/03 01:26:12;;;;;;;30.45;16.85;;;;;;;5.41;100.00;102141.91;9948873;29;19925;-73
2021/03/03 01:31:15;;;;;;;28.70;18.27;;;;;;;5.36;100.00;102142.78;9951103;29;20396;-73
2021/03/03 01:36:18;;;;;;;26.95;16.83;;;;;;;5.66;100.00;102174.19;9986274;29;20058;-73
2021/03/03 01:41:20;;;;;;;27.00;17.92;;;;;;;5.47;100.00;102147.13;9955585;29;20059;-73
2021/03/03 01:46:23;;;;;;;24.05;17.15;;;;;;;5.59;100.00;102169.81;9985558;29;20062;-73
2021/03/03 01:51:27;;;;;;;25.00;17.42;;;;;;;5.24;100.00;102134.03;9985298;29;20393;-73
2021/03/03 01:56:29;;;;;;;28.25;18.17;;;;;;;5.37;100.00;102155.81;9932355;29;20158;-73
2021/03/03 02:01:32;;;;;;;29.90;19.45;;;;;;;5.40;100.00;102154.97;9933238;29;20150;-73
2021/03/03 02:06:44;;;;;;;25.88;18.55;;;;;;;5.34;100.00;102156.72;9917039;29;20099;-73
2021/03/03 02:12:11;;;;;;;32.10;20.38;;;;;;;5.16;100.00;102138.38;9963782;29;20055;-73
2021/03/03 02:17:17;;;;;;;28.67;19.00;;;;;;;4.98;100.00;102114.81;9954504;29;20054;-73
2021/03/03 02:22:22;;;;;;;27.58;18.80;;;;;;;4.58;100.00;102072.06;9940197;29;20465;-73
2021/03/03 02:27:27;;;;;;;24.73;17.40;;;;;;;4.32;100.00;102074.53;9968725;29;20062;-73
2021/03/03 02:32:30;;;;;;;27.47;17.00;;;;;;;4.33;100.00;102102.38;9970009;29;20561;-73
2021/03/03 02:37:36;;;;;;;24.25;17.33;;;;;;;4.23;100.00;102097.09;9969819;29;20453;-73
2021/03/03 02:42:44;;;;;;;24.58;17.65;;;;;;;4.11;100.00;102077.03;9969570;29;20404;-73
2021/03/03 02:47:50;;;;;;;31.60;20.83;;;;;;;3.93;100.00;102071.72;9984063;29;20157;-73
2021/03/03 02:53:02;;;;;;;27.40;18.35;;;;;;;3.96;100.00;102080.41;9984449;29;20157;-73
2021/03/03 02:58:04;;;;;;;28.75;19.40;;;;;;;3.94;100.00;102084.75;9968710;29;20062;-73
2021/03/03 03:03:23;;;;;;;29.08;18.77;;;;;;;3.97;100.00;102097.81;9968056;29;20088;-73
2021/03/03 03:08:28;;;;;;;28.98;19.13;;;;;;;4.16;100.00;102107.50;9967924;29;20149;-73
2021/03/03 03:13:33;;;;;;;30.27;19.73;;;;;;;4.49;100.00;102135.50;9968011;29;20058;-73
2021/03/03 03:18:55;;;;;;;30.15;18.98;;;;;;;4.63;100.00;102143.41;9982285;29;20085;-73
2021/03/03 03:24:19;;;;;;;25.92;17.80;;;;;;;4.60;100.00;102126.88;9983644;29;20385;-73
2021/03/03 03:29:26;;;;;;;28.42;18.05;;;;;;;4.55;100.00;102127.72;9967050;29;20388;-73
2021/03/03 03:34:30;;;;;;;27.85;17.67;;;;;;;4.57;100.00;102115.53;9983457;29;20149;-73
2021/03/03 03:39:35;;;;;;;26.13;16.80;;;;;;;4.47;100.00;102120.69;9982792;29;20519;-73
2021/03/03 03:44:54;;;;;;;27.70;18.00;;;;;;;4.35;100.00;102102.41;9945319;29;20058;-73
2021/03/03 03:50:02;;;;;;;26.55;18.08;;;;;;;4.42;100.00;102120.69;10004262;29;20054;-73
2021/03/03 03:55:03;;;;;;;27.70;19.48;;;;;;;4.46;100.00;102111.13;9980959;29;20430;-73
2021/03/03 04:00:08;;;;;;;30.00;18.90;;;;;;;4.50;100.00;102123.34;9982517;29;20142;-73
2021/03/03 04:05:24;;;;;;;29.83;19.52;;;;;;;4.44;100.00;102124.16;9968681;29;20116;-73
2021/03/03 04:10:29;;;;;;;30.05;18.17;;;;;;;4.52;100.00;102132.03;9951969;29;20064;-73
2021/03/03 04:15:32;;;;;;;33.15;19.40;;;;;;;4.48;100.00;102127.66;9982328;29;20134;-73
2021/03/03 04:20:36;;;;;;;29.52;19.98;;;;;;;4.43;100.00;102121.56;9967134;29;20050;-73
2021/03/03 04:25:48;;;;;;;23.77;17.45;;;;;;;4.19;100.00;102107.50;9968038;29;20133;-73
2021/03/03 04:30:53;;;;;;;28.30;18.42;;;;;;;4.36;100.00;102132.81;9970011;29;20176;-73
2021/03/03 04:35:57;;;;;;;28.88;17.55;;;;;;;4.57;100.00;102153.81;9973693;29;20084;-73
2021/03/03 04:40:59;;;;;;;27.95;17.83;;;;;;;4.69;100.00;102160.81;9988236;29;20481;-73
2021/03/03 04:46:01;;;;;;;26.38;17.98;;;;;;;4.74;100.00;102154.78;9972850;29;20063;-72
2021/03/03 04:51:06;;;;;;;26.52;16.25;;;;;;;4.79;100.00;102155.66;9987822;29;20050;-73
2021/03/03 04:56:09;;;;;;;25.10;17.73;;;;;;;4.71;100.00;102141.69;9971932;29;20058;-73
2021/03/03 05:01:11;;;;;;;29.98;20.75;;;;;;;4.72;100.00;102148.66;9972914;29;20454;-73
2021/03/03 05:06:14;;;;;;;26.52;18.50;;;;;;;4.56;100.00;102136.41;9956602;29;20135;-73
2021/03/03 05:11:15;;;;;;;27.08;18.05;;;;;;;4.74;100.00;102154.78;9971342;29;20061;-73
2021/03/03 05:16:19;;;;;;;28.65;19.65;;;;;;;4.60;100.00;102127.75;9986971;29;20119;-73
2021/03/03 05:21:23;;;;;;;28.95;19.00;;;;;;;4.57;100.00;102133.81;9965884;29;20050;-73
2021/03/03 05:26:27;;;;;;;29.25;19.83;;;;;;;4.61;100.00;102133.81;9956589;29;20396;-73
2021/03/03 05:31:31;;;;;;;26.42;18.50;;;;;;;4.69;100.00;102148.63;9956274;29;20058;-73
2021/03/03 05:36:37;;;;;;;29.60;20.40;;;;;;;4.64;100.00;102132.09;9969462;29;20448;-72
2021/03/03 05:41:44;;;;;;;32.13;19.23;;;;;;;4.66;100.00;102138.19;9970160;29;20122;-73
2021/03/03 05:46:51;;;;;;;28.65;19.60;;;;;;;4.52;100.00;102117.25;9970946;29;20152;-73
2021/03/03 05:52:01;;;;;;;29.60;20.52;;;;;;;4.35;100.00;102099.78;9949410;29;20058;-72
2021/03/03 05:57:09;;;;;;;27.65;18.00;;;;;;;4.33;100.00;102118.03;9970502;29;20065;-73
2021/03/03 06:02:20;;;;;;;30.25;19.98;;;;;;;4.41;100.00;102118.94;9956472;29;20047;-73
2021/03/03 06:07:25;;;;;;;30.48;20.35;;;;;;;4.29;100.00;102110.16;9969970;29;20082;-73
2021/03/03 06:12:32;;;;;;;32.00;19.02;;;;;;;4.37;100.00;102126.72;9985020;29;20054;-73
2021/03/03 06:17:34;;;;;;;27.70;17.73;;;;;;;4.60;100.00;102155.56;9969446;29;20130;-73
2021/03/03 06:22:37;;;;;;;29.27;18.02;;;;;;;4.68;100.00;102156.50;9983418;29;20065;-73
2021/03/03 06:27:39;;;;;;;28.17;18.33;;;;;;;4.72;100.00;102153.88;9968997;29;20050;-73
2021/03/03 06:32:50;;;;;;;;;;;;;;;4.87;100.00;102161.78;9965759;29;20058;-73
2021/03/03 06:37:57;;;;;;;29.67;20.65;;;;;;;4.81;100.00;102148.72;9946050;29;19936;-73
2021/03/03 06:43:18;;;;;;;31.10;19.95;;;;;;;4.91;100.00;102139.19;9959913;29;20058;-73
2021/03/03 06:48:45;;;;;;;30.52;19.52;;;;;;;4.59;100.00;102107.72;9981076;29;20054;-75
2021/03/03 06:53:49;;;;;;;30.53;20.30;;;;;;;4.57;100.00;102132.94;9989221;29;20046;-72
2021/03/03 06:58:53;;;;;;;28.52;18.17;;;;;;;4.77;100.00;102170.44;9944788;29;20050;-73
2021/03/03 07:03:57;;;;;;;33.10;18.90;;;;;;;4.92;100.00;102187.94;9983589;29;20153;-73
2021/03/03 07:09:05;;;;;;;28.98;18.83;;;;;;;5.00;100.00;102182.72;9991347;29;20050;-72
2021/03/03 07:14:15;;;;;;;29.20;20.70;;;;;;;5.00;100.00;102178.38;9990348;29;20141;-72
2021/03/03 07:19:20;;;;;;;33.42;21.48;;;;;;;4.96;100.00;102182.72;10019797;29;20068;-71
2021/03/03 07:24:26;;;;;;;34.42;20.00;;;;;;;5.16;100.00;102213.25;9987481;29;20060;-72
2021/03/03 07:29:33;;;;;;;36.20;22.92;;;;;;;5.35;100.00;102215.09;9990018;29;20483;-74
2021/03/03 07:34:42;;;;;;;31.35;19.60;;;;;;;5.42;100.00;102211.63;10005986;29;20066;-74
2021/03/03 07:39:56;;;;;;;30.02;18.23;;;;;;;5.57;100.00;102229.06;10007157;29;20054;-73
2021/03/03 07:45:01;;;;;;;31.63;22.07;;;;;;;5.91;100.00;102243.97;9945583;29;20158;-73
2021/03/03 07:50:17;;;;;;;28.40;18.37;;;;;;;6.29;100.00;102272.78;10005376;29;20476;-72
2021/03/03 07:55:23;;;;;;;30.80;19.35;;;;;;;6.76;100.00;102282.34;9994252;29;20078;-77
2021/03/03 08:00:27;;;;;;;28.70;21.38;;;;;;;6.77;100.00;102247.44;9967465;29;20091;-76
2021/03/03 08:05:37;;;;;;;30.23;19.63;;;;;;;7.05;100.00;102269.16;9991685;29;20063;-74
2021/03/03 08:10:40;;;;;;;28.67;20.88;;;;;;;7.72;100.00;102300.34;10018041;29;20119;-73
2021/03/03 08:15:48;;;;;;;28.98;18.88;;;;;;;8.59;99.03;102345.31;9972804;29;20508;-72
2021/03/03 08:20:54;;;;;;;31.67;21.38;;;;;;;8.69;92.84;102282.16;9972918;29;20107;-74
2021/03/03 08:26:19;;;;;;;27.48;20.15;;;;;;;8.87;89.90;102267.09;9987099;29;20385;-74
2021/03/03 08:31:29;;;;;;;31.17;21.77;;;;;;;9.35;88.13;102284.94;9992917;29;20064;-75
2021/03/03 08:36:37;;;;;;;29.80;20.25;;;;;;;9.40;84.98;102229.63;10011473;29;20072;-74
2021/03/03 08:41:40;;;;;;;30.70;20.17;;;;;;;9.86;84.79;102277.22;9994543;29;20077;-73
2021/03/03 08:46:48;;;;;;;29.73;19.75;;;;;;;10.80;82.63;102306.44;9972334;29;20114;-74
2021/03/03 08:52:07;;;;;;;32.95;21.20;;;;;;;10.94;79.26;102259.63;10024308;29;20085;-73
2021/03/03 08:57:37;;;;;;;32.03;20.15;;;;;;;11.26;77.99;102278.31;9971666;29;20145;-73
2021/03/03 09:02:41;;;;;;;30.55;21.55;;;;;;;11.89;75.03;102275.19;9971031;29;20069;-73
2021/03/03 09:07:45;;;;;;;31.75;20.73;;;;;;;11.86;74.79;102251.50;9975734;29;20106;-74
2021/03/03 09:12:48;;;;;;;34.70;22.95;;;;;;;12.27;74.13;102252.28;9985372;29;20062;-76
2021/03/03 09:17:51;;;;;;;25.95;19.45;;;;;;;12.32;73.86;102223.97;9969491;29;20070;-77
2021/03/03 09:22:54;;;;;;;30.65;19.92;;;;;;;12.03;73.94;102178.03;9956592;29;20065;-77
2021/03/03 09:28:02;;;;;;;27.38;18.20;;;;;;;13.01;70.91;102212.38;9971019;29;20141;-77
2021/03/03 09:33:21;;;;;;;24.90;18.15;;;;;;;13.38;68.36;102165.44;9984043;29;20133;-77
2021/03/03 09:38:23;;;;;;;29.88;20.13;;;;;;;14.24;66.74;102240.34;9971254;29;20095;-77
2021/03/03 09:43:26;;;;;;;26.65;19.30;;;;;;;15.01;64.68;102235.00;9956643;29;20063;-73
2021/03/03 09:48:31;;;;;;;26.10;18.40;;;;;;;15.30;63.82;102228.63;9969800;29;20058;-78
2021/03/03 09:53:35;;;;;;;27.63;18.90;;;;;;;14.12;67.14;102155.97;9970449;29;20145;-78
2021/03/03 09:58:46;;;;;;;26.80;17.63;;;;;;;15.08;66.47;102225.88;9971684;29;20122;-78
2021/03/03 10:03:58;;;;;;;26.08;18.35;;;;;;;14.77;66.48;102173.09;9972433;29;20115;-78
2021/03/03 10:09:05;;;;;;;27.85;17.40;;;;;;;15.58;64.42;102220.47;9969789;29;20065;-77
2021/03/03 10:14:09;;;;;;;22.58;17.73;;;;;;;15.53;63.15;102137.41;9932756;29;20058;-73
2021/03/03 10:19:21;;;;;;;22.92;18.90;;;;;;;17.09;60.12;102254.88;9931815;29;20062;-73
2021/03/03 10:24:48;;;;;;;30.02;18.45;;;;;;;17.33;57.15;102184.47;9966287;29;20162;-73
2021/03/03 10:29:49;;;;;;;25.52;18.75;;;;;;;18.61;54.85;102223.50;9982324;29;20055;-73
2021/03/03 10:35:00;;;;;;;26.42;17.63;;;;;;;18.05;55.48;102152.53;9968281;29;20311;-73
2021/03/03 10:40:18;;;;;;;29.20;19.23;;;;;;;18.31;55.66;102195.69;9966069;29;20066;-74
2021/03/03 10:45:23;;;;;;;33.72;23.35;;;;;;;19.24;54.49;102256.63;9953327;29;20059;-74
2021/03/03 10:50:28;;;;;;;26.80;18.65;;;;;;;19.80;50.79;102115.38;9952248;29;20064;-73
2021/03/03 10:55:37;;;;;;;25.48;19.67;;;;;;;19.27;52.83;102143.34;9978140;29;20492;-73
2021/03/03 11:01:02;;;;;;;31.90;23.00;;;;;;;18.76;52.13;102001.06;9968465;29;20073;-74
2021/03/03 11:06:32;;;;;;;27.00;19.75;;;;;;;19.30;52.88;102084.38;9984310;29;20122;-74
2021/03/03 11:11:57;;;;;;;29.52;20.27;;;;;;;19.57;53.05;102114.06;9979771;29;20419;-74
2021/03/03 11:17:04;;;;;;;28.70;21.48;;;;;;;18.71;53.22;102004.94;9965672;29;20119;-73
2021/03/03 11:22:12;;;;;;;28.55;23.38;;;;;;;20.97;51.19;102185.88;9966536;29;20389;-73
2021/03/03 11:27:32;;;;;;;29.13;21.60;;;;;;;21.15;50.32;102141.84;9969716;29;20505;-73
2021/03/03 11:32:34;;;;;;;36.40;24.25;;;;;;;20.36;50.68;102029.00;9951867;29;20065;-73
2021/03/03 11:37:38;;;;;;;31.02;22.85;;;;;;;20.49;51.53;102090.69;9950096;29;20062;-74
2021/03/03 11:42:42;;;;;;;35.20;24.97;;;;;;;22.18;48.27;102128.72;9975015;29;20066;-73
2021/03/03 11:47:52;;;;;;;28.83;22.65;;;;;;;21.55;49.69;102048.94;9974523;29;20115;-73
2021/03/03 11:52:57;;;;;;;31.75;22.63;;;;;;;23.53;45.74;102155.81;9966174;29;20050;-74
2021/03/03 11:58:00;;;;;;;33.67;24.13;;;;;;;23.89;44.56;102146.84;9975173;29;20077;-73
2021/03/03 12:03:14;;;;;;;38.33;23.27;;;;;;;23.57;44.10;102069.41;9951575;29;20054;-77
2021/03/03 12:08:44;;;;;;;33.60;22.98;;;;;;;23.06;45.11;102025.72;9950757;29;20065;-77
2021/03/03 12:13:59;;;;;;;33.13;23.05;;;;;;;23.64;44.22;102067.09;9975829;29;20050;-74
2021/03/03 12:19:10;;;;;;;39.47;26.60;;;;;;;24.01;44.08;102097.44;9990710;29;20488;-73
2021/03/03 12:24:16;;;;;;;36.33;25.08;;;;;;;24.05;43.61;102067.47;9992290;29;20113;-75
2021/03/03 12:29:17;;;;;;;31.13;23.20;;;;;;;24.62;42.94;102045.00;10011889;29;20068;-73
2021/03/03 12:34:22;;;;;;;34.85;23.27;;;;;;;24.75;42.44;102047.56;10027211;29;20153;-74
2021/03/03 12:39:23;;;;;;;32.35;21.60;;;;;;;24.90;41.32;101982.47;10025890;29;20074;-74
2021/03/03 12:44:34;;;;;;;34.35;22.90;;;;;;;24.86;41.47;102004.41;9959555;29;20054;-74
2021/03/03 12:49:35;;;;;;;31.88;20.13;;;;;;;24.11;42.40;101929.63;9986180;29;20550;-75
2021/03/03 12:54:37;;;;;;;30.77;21.20;;;;;;;23.95;43.70;101947.13;9956527;29;20153;-75
2021/03/03 12:59:40;;;;;;;32.23;22.00;;;;;;;22.97;44.88;101871.34;9971829;29;20073;-75
2021/03/03 13:04:44;;;;;;;31.73;21.73;;;;;;;23.51;42.72;101886.94;9958064;29;20074;-75
2021/03/03 13:09:50;;;;;;;28.30;21.02;;;;;;;23.57;43.16;101921.41;9985889;29;20058;-75
2021/03/03 13:15:18;;;;;;;35.28;20.38;;;;;;;23.11;43.56;101846.06;9986960;29;20140;-74
2021/03/03 13:20:22;;;;;;;30.13;19.55;;;;;;;22.96;44.71;101872.31;9971237;29;20149;-73
2021/03/03 13:25:24;;;;;;;24.65;17.88;;;;;;;21.63;44.60;101746.19;9971685;29;20068;-75
2021/03/03 13:30:28;;;;;;;29.77;19.03;;;;;;;21.28;46.60;101798.78;9971895;29;20086;-72
2021/03/03 13:35:36;;;;;;;29.05;18.80;;;;;;;20.20;46.43;101702.59;9972794;29;20082;-75
2021/03/03 13:40:44;;;;;;;28.85;19.48;;;;;;;20.91;47.54;101821.88;9964968;29;20427;-73
2021/03/03 13:45:48;;;;;;;25.58;18.85;;;;;;;20.29;48.72;101781.41;10009962;29;20156;-73
2021/03/03 13:50:52;;;;;;;27.27;17.58;;;;;;;19.84;48.23;101743.31;10010680;29;20401;-71
2021/03/03 13:55:58;;;;;;;;;;;;;;;19.17;48.65;101720.84;9992266;29;20058;-74
2021/03/03 14:01:00;;;;;;;32.53;18.27;;;;;;;18.80;49.42;101698.22;9970542;29;19925;-73
2021/03/03 14:06:06;;;;;;;33.53;19.60;;;;;;;19.39;49.82;101789.84;9969723;29;20054;-74
2021/03/03 14:11:07;;;;;;;30.27;19.27;;;;;;;19.05;51.85;101779.53;9983776;29;20069;-73
2021/03/03 14:16:15;;;;;;;29.40;19.13;;;;;;;19.01;49.81;101744.09;9972599;29;20065;-76
2021/03/03 14:21:19;;;;;;;30.30;18.83;;;;;;;18.73;50.02;101736.94;9984974;29;20061;-75
2021/03/03 14:26:23;;;;;;;27.45;18.77;;;;;;;18.86;49.57;101724.56;9954317;29;20153;-74
2021/03/03 14:31:27;;;;;;;30.73;18.67;;;;;;;18.78;49.93;101740.19;9947115;29;20055;-74
2021/03/03 14:36:31;;;;;;;26.73;18.27;;;;;;;18.41;51.07;101705.94;9971526;29;20149;-72
2021/03/03 14:41:33;;;;;;;37.03;19.70;;;;;;;18.26;52.96;101766.38;9955480;29;20081;-74
2021/03/03 14:46:38;;;;;;;31.93;20.50;;;;;;;18.17;52.37;101738.41;9970393;29;20064;-75
2021/03/03 14:51:47;;;;;;;33.65;20.20;;;;;;;18.16;53.04;101762.53;10003855;29;20524;-74
2021/03/03 14:56:52;;;;;;;27.52;18.48;;;;;;;17.95;51.72;101713.94;10017527;29;20081;-74
2021/03/03 15:02:12;;;;;;;32.40;17.98;;;;;;;17.52;52.17;101691.50;9983833;29;20050;-73
2021/03/03 15:07:24;;;;;;;35.72;21.35;;;;;;;17.52;52.69;101703.94;9999265;29;20152;-74
2021/03/03 15:12:27;;;;;;;32.30;18.52;;;;;;;17.37;54.05;101714.53;9990358;29;20425;-73
2021/03/03 15:17:32;;;;;;;33.53;21.48;;;;;;;16.92;53.70;101671.72;10005547;29;20050;-73
2021/03/03 15:22:38;;;;;;;29.13;20.00;;;;;;;17.13;54.92;101726.50;10003098;29;20053;-73
2021/03/03 15:27:56;;;;;;;33.20;21.23;;;;;;;17.01;54.85;101696.06;10021695;29;20060;-73
2021/03/03 15:33:00;;;;;;;33.92;19.75;;;;;;;17.36;54.81;101768.75;9990377;29;20464;-74
2021/03/03 15:38:20;;;;;;;34.88;21.05;;;;;;;17.05;55.37;101718.06;10018097;29;20088;-74
2021/03/03 15:43:28;;;;;;;29.77;20.27;;;;;;;16.90;55.19;101706.44;10005945;29;20084;-73
2021/03/03 15:48:42;;;;;;;34.22;20.90;;;;;;;16.62;55.63;101684.88;10020457;29;20097;-73
2021/03/03 15:53:47;;;;;;;34.15;21.55;;;;;;;16.54;55.83;101695.00;9990714;29;20050;-73
2021/03/03 15:58:50;;;;;;;43.57;29.77;;;;;;;16.29;56.48;101669.69;9967481;29;20123;-74
2021/03/03 16:03:58;;;;;;;33.92;23.30;;;;;;;16.37;56.58;101689.69;9982798;29;20315;-73
2021/03/03 16:09:03;;;;;;;38.25;22.95;;;;;;;16.37;57.26;101709.19;9952280;29;20508;-73
2021/03/03 16:14:15;;;;;;;42.15;26.20;;;;;;;16.23;57.68;101699.25;9982535;29;20065;-74
2021/03/03 16:19:18;;;;;;;41.85;27.35;;;;;;;16.06;58.18;101691.25;9966313;29;20065;-72
2021/03/03 16:24:23;;;;;;;39.58;24.48;;;;;;;15.94;58.56;101689.19;9952017;29;20055;-74
2021/03/03 16:29:45;;;;;;;34.55;22.75;;;;;;;15.82;59.57;101703.91;9988576;29;20131;-74
2021/03/03 16:34:50;;;;;;;42.63;26.30;;;;;;;15.68;60.60;101711.69;9989541;29;20492;-75
2021/03/03 16:39:58;;;;;;;39.05;24.80;;;;;;;15.43;61.46;101695.19;9942425;29;20099;-74
2021/03/03 16:45:16;;;;;;;40.53;24.95;;;;;;;15.22;61.60;101689.09;9973030;29;20066;-74
2021/03/03 16:50:28;;;;;;;;;;;;;;;14.97;62.49;101681.38;9973426;29;20492;-73
2021/03/03 16:55:32;;;;;;;39.78;25.40;;;;;;;14.74;63.70;101681.53;9988021;29;19933;-74
2021/03/03 17:00:37;;;;;;;39.90;21.48;;;;;;;14.41;65.25;101673.25;9972861;29;20062;-74
2021/03/03 17:05:41;;;;;;;37.20;23.88;;;;;;;13.92;68.24;101667.34;9972853;29;20137;-74
2021/03/03 17:10:50;;;;;;;45.22;25.20;;;;;;;13.72;69.75;101685.84;9972423;29;20051;-74
2021/03/03 17:15:53;;;;;;;39.00;25.23;;;;;;;13.58;69.83;101690.81;9971804;29;20062;-74
2021/03/03 17:21:10;;;;;;;46.22;26.70;;;;;;;13.36;70.13;101706.66;9961289;29;20472;-74
2021/03/03 17:26:12;;;;;;;40.75;25.85;;;;;;;13.23;70.17;101702.75;9970763;29;20484;-74
2021/03/03 17:31:16;;;;;;;43.08;24.70;;;;;;;13.08;70.75;101705.94;9972244;29;20066;-73
2021/03/03 17:36:18;;;;;;;37.53;22.03;;;;;;;12.82;72.14;101702.47;9953860;29;20389;-74
2021/03/03 17:41:23;;;;;;;44.77;23.83;;;;;;;12.71;73.10;101712.56;9983263;29;20126;-74
2021/03/03 17:46:27;;;;;;;35.67;22.58;;;;;;;12.54;73.61;101709.66;9957796;29;20062;-74
2021/03/03 17:51:29;;;;;;;49.70;31.53;;;;;;;12.29;74.14;101707.00;9954707;29;20054;-74
2021/03/03 17:56:32;;;;;;;43.58;27.42;;;;;;;12.26;74.66;101719.44;9970045;29;20050;-74
2021/03/03 18:01:36;;;;;;;40.67;24.70;;;;;;;12.29;74.60;101727.25;9962068;29;20149;-74
2021/03/03 18:06:38;;;;;;;40.58;23.52;;;;;;;12.23;74.58;101732.72;9967004;29;20417;-73
2021/03/03 18:11:43;;;;;;;37.00;23.60;;;;;;;12.23;74.67;101736.25;9985359;29;20384;-73
2021/03/03 18:16:49;;;;;;;41.67;25.40;;;;;;;11.84;74.58;101719.03;9970262;29;20059;-73
2021/03/03 18:21:51;;;;;;;46.67;28.70;;;;;;;11.52;76.21;101696.25;9969552;29;20062;-73
2021/03/03 18:26:55;;;;;;;36.17;22.55;;;;;;;11.28;78.31;101703.16;9969149;29;20086;-73
2021/03/03 18:31:57;;;;;;;40.33;21.92;;;;;;;11.19;79.54;101704.28;9970016;29;20063;-73
2021/03/03 18:37:01;;;;;;;34.35;21.75;;;;;;;11.08;81.91;101710.75;9960393;29;20105;-73
2021/03/03 18:42:09;;;;;;;36.65;21.98;;;;;;;11.07;82.96;101715.16;9931433;29;20113;-73
2021/03/03 18:47:21;;;;;;;36.47;22.30;;;;;;;11.06;81.91;101718.72;9931359;29;20143;-73
2021/03/03 18:52:24;;;;;;;38.40;22.80;;;;;;;10.94;81.95;101713.81;9949827;29;20144;-73
2021/03/03 18:57:29;;;;;;;37.00;23.48;;;;;;;10.92;81.28;101721.75;9969178;29;20446;-73
2021/03/03 19:02:33;;;;;;;36.92;23.00;;;;;;;10.90;81.34;101706.88;9967638;29;20046;-72
2021/03/03 19:07:40;;;;;;;33.70;20.85;;;;;;;10.62;81.98;101690.97;9968256;29;20501;-74
2021/03/03 19:12:44;;;;;;;38.55;23.00;;;;;;;10.02;85.39;101656.50;9968937;29;20064;-73
2021/03/03 19:17:47;;;;;;;36.78;21.48;;;;;;;9.94;88.45;101675.13;9968177;29;20054;-73
2021/03/03 19:22:51;;;;;;;34.15;21.75;;;;;;;10.46;86.08;101737.91;9968137;29;20499;-73
2021/03/03 19:27:54;;;;;;;36.85;21.63;;;;;;;10.68;83.14;101727.69;9953132;29;20058;-73
2021/03/03 19:33:01;;;;;;;40.90;21.00;;;;;;;10.77;81.34;101716.03;9967835;29;20058;-73
2021/03/03 19:38:04;;;;;;;39.42;21.23;;;;;;;10.62;81.86;101697.09;9997953;29;20060;-74
2021/03/03 19:43:09;;;;;;;40.40;24.48;;;;;;;10.39;82.39;101681.03;9990218;29;20463;-73
2021/03/03 19:48:31;;;;;;;40.75;22.05;;;;;;;10.08;83.90;101662.50;9972641;29;20060;-73
2021/03/03 19:53:44;;;;;;;41.00;22.33;;;;;;;10.00;84.96;101679.38;9967944;29;20062;-73
2021/03/03 19:59:03;;;;;;;43.17;21.63;;;;;;;9.94;85.63;101687.44;9943181;29;20146;-72
2021/03/03 20:04:07;;;;;;;32.35;20.85;;;;;;;9.83;86.23;101672.75;9974024;29;20050;-72
2021/03/03 20:09:15;;;;;;;39.60;21.70;;;;;;;9.88;86.28;101693.69;9976673;29;20158;-73
2021/03/03 20:14:25;;;;;;;36.85;23.83;;;;;;;9.89;85.98;101687.53;9974081;29;20141;-73
2021/03/03 20:19:28;;;;;;;40.67;21.97;;;;;;;9.60;86.56;101666.31;9973564;29;20142;-73
2021/03/03 20:24:32;;;;;;;38.83;23.45;;;;;;;9.47;87.77;101666.59;9979548;29;20072;-73
2021/03/03 20:29:35;;;;;;;37.70;22.25;;;;;;;9.49;88.98;101670.03;10026384;29;20484;-73
2021/03/03 20:34:43;;;;;;;37.22;23.33;;;;;;;9.67;89.52;101699.47;10027094;29;20128;-73
2021/03/03 20:40:22;;;;;;;34.33;23.08;;;;;;;9.74;88.98;101706.31;9994103;29;20074;-73
2021/03/03 20:45:26;;;;;;;;;;;;;;;9.82;88.61;101710.50;9958785;29;20064;-72
2021/03/03 20:50:29;;;;;;;45.08;26.00;;;;;;;9.96;87.52;101710.16;9972426;29;19932;-72
2021/03/03 20:55:34;;;;;;;40.42;24.27;;;;;;;10.24;85.49;101727.06;9972325;29;20073;-73
2021/03/03 21:00:41;;;;;;;32.65;22.27;;;;;;;10.32;84.62;101718.09;9971765;29;20115;-73
2021/03/03 21:05:43;;;;;;;48.40;27.90;;;;;;;10.55;84.26;101740.31;9977584;29;20058;-72
2021/03/03 21:10:48;;;;;;;;;;;;;;;10.43;85.97;101710.78;9972339;29;20508;-73
2021/03/03 21:15:49;;;;;;;42.35;28.15;;;;;;;10.33;88.54;101709.28;9971783;29;19935;-73
2021/03/03 21:20:55;;;;;;;46.03;30.58;;;;;;;10.36;89.72;101725.91;9971898;29;20051;-73
2021/03/03 21:26:00;;;;;;;43.45;30.10;;;;;;;10.36;91.85;101732.94;9971380;29;20065;-73
2021/03/03 21:31:04;;;;;;;40.53;29.15;;;;;;;10.19;93.88;101723.69;9986648;29;20082;-73
2021/03/03 21:36:10;;;;;;;53.28;35.80;;;;;;;9.97;95.61;101719.78;9985836;29;20066;-73
2021/03/03 21:41:14;;;;;;;45.20;32.45;;;;;;;9.80;97.08;101711.44;9985542;29;20058;-72
2021/03/03 21:46:17;;;;;;;49.75;35.03;;;;;;;9.71;98.38;101725.66;9970742;29;20054;-72
2021/03/03 21:51:22;;;;;;;48.22;34.15;;;;;;;9.45;99.18;101714.88;9970480;29;20111;-72
2021/03/03 21:56:26;;;;;;;50.25;35.72;;;;;;;9.19;100.00;101709.31;9970219;29;20089;-73
2021/03/03 22:01:32;;;;;;;58.30;39.15;;;;;;;9.09;100.00;101711.25;9970918;29;20062;-73
2021/03/03 22:06:35;;;;;;;51.13;37.60;;;;;;;9.12;100.00;101719.09;9984727;29;20058;-73
2021/03/03 22:11:38;;;;;;;60.20;41.03;;;;;;;8.98;100.00;101700.09;9983880;29;20153;-73
2021/03/03 22:16:43;;;;;;;53.38;38.70;;;;;;;9.16;100.00;101727.75;9984694;29;20318;-73
2021/03/03 22:21:48;;;;;;;63.40;41.95;;;;;;;9.19;100.00;101727.72;9971291;29;20086;-73
2021/03/03 22:27:13;;;;;;;55.42;41.53;;;;;;;9.13;100.00;101718.16;9985300;29;20401;-73
2021/03/03 22:32:16;;;;;;;59.88;44.03;;;;;;;9.04;100.00;101719.22;9970976;29;20058;-72
2021/03/03 22:37:23;;;;;;;;;;;;;;;9.03;100.00;101714.03;9971167;29;20054;-73
2021/03/03 22:42:28;;;;;;;62.00;44.28;;;;;;;8.89;100.00;101693.25;9984859;29;20255;-73
2021/03/03 22:47:36;;;;;;;68.50;49.40;;;;;;;8.94;100.00;101715.06;9984162;29;20064;-72
2021/03/03 22:52:43;;;;;;;62.65;48.92;;;;;;;9.08;100.00;101717.41;9984605;29;20518;-73
2021/03/03 22:57:46;;;;;;;69.90;50.83;;;;;;;9.00;100.00;101701.78;9954204;29;20070;-72
2021/03/03 23:02:49;;;;;;;65.83;48.03;;;;;;;8.97;100.00;101690.47;9984536;29;20114;-73
2021/03/03 23:07:52;;;;;;;67.32;49.10;;;;;;;9.06;100.00;101713.94;9964448;29;20089;-73
2021/03/03 23:12:56;;;;;;;66.78;48.35;;;;;;;9.13;100.00;101715.53;9968418;29;20058;-72
2021/03/03 23:18:00;;;;;;;;;;;;;;;8.91;100.00;101699.34;9976716;29;20065;-73
2021/03/03 23:23:05;;;;;;;64.95;47.38;;;;;;;8.63;100.00;101672.72;9957249;29;19935;-73